Time;durP1;ratioP1;P1;durP2;ratioP2;P2;SDS_P1;SDS_P2;PMS_P1;PMS_P2;Temp;Humidity;BMP_temperature;BMP_pressure;BME280_temperature;BME280_humidity;BME280_pressure;Samples;Min_cycle;Max_cycle;Signal;HPM_P1;HPM_P2
2023/08/01 00:01:23;;;;;;;1.20;0.50;;;;;;;21.03;99.35;100040.66;5072048;28;20571;-65
2023/08/01 00:03:48;;;;;;;2.53;0.40;;;;;;;20.98;99.46;100033.38;5074312;28;20510;-65
2023/08/01 00:06:14;;;;;;;1.80;0.35;;;;;;;20.89;100.00;100029.41;5068370;28;20040;-65
2023/08/01 00:08:39;;;;;;;0.80;0.30;;;;;;;20.83;100.00;100031.09;5066913;28;20040;-65
2023/08/01 00:11:05;;;;;;;4.10;0.40;;;;;;;20.78;100.00;100033.63;5076542;28;20029;-65
2023/08/01 00:13:30;;;;;;;0.65;0.30;;;;;;;20.75;100.00;100023.47;5071661;28;20168;-65
2023/08/01 00:15:56;;;;;;;1.50;0.40;;;;;;;20.73;100.00;100019.44;5071056;28;20052;-65
2023/08/01 00:18:21;;;;;;;2.35;0.85;;;;;;;20.68;100.00;100022.75;5074113;28;20040;-64
2023/08/01 00:20:46;;;;;;;2.33;0.40;;;;;;;20.72;100.00;100015.16;5068765;28;20046;-65
2023/08/01 00:23:12;;;;;;;4.18;0.32;;;;;;;20.72;100.00;100013.31;5075942;28;20081;-66
2023/08/01 00:25:37;;;;;;;2.13;0.63;;;;;;;20.70;100.00;100010.09;5074108;28;20090;-65
2023/08/01 00:28:03;;;;;;;0.80;0.32;;;;;;;20.66;100.00;100003.63;5068446;28;20044;-65
2023/08/01 00:30:28;;;;;;;0.95;0.30;;;;;;;20.64;100.00;100010.16;5071747;28;20024;-65
2023/08/01 00:32:53;;;;;;;1.20;0.47;;;;;;;20.61;100.00;100006.13;5068380;28;20048;-64
2023/08/01 00:35:19;;;;;;;0.75;0.30;;;;;;;20.60;100.00;100001.03;5069041;28;20400;-65
2023/08/01 00:37:44;;;;;;;0.93;0.40;;;;;;;20.53;100.00;99993.97;5072122;28;20047;-65
2023/08/01 00:40:10;;;;;;;2.17;0.35;;;;;;;20.51;100.00;99989.94;5069869;28;20119;-66
2023/08/01 00:42:39;;;;;;;2.92;0.30;;;;;;;20.54;100.00;99989.50;5068409;28;20039;-66
2023/08/01 00:45:05;;;;;;;0.95;0.30;;;;;;;20.52;100.00;99986.28;5077168;28;20089;-65
2023/08/01 00:47:31;;;;;;;0.82;0.30;;;;;;;20.50;100.00;99986.47;5077977;28;20036;-65
2023/08/01 00:49:56;;;;;;;0.90;0.30;;;;;;;20.49;100.00;99976.13;5076205;28;20043;-65
2023/08/01 00:52:22;;;;;;;1.88;0.30;;;;;;;20.47;100.00;99983.47;5076254;28;20032;-65
2023/08/01 00:54:48;;;;;;;3.17;0.30;;;;;;;20.46;100.00;99974.72;5072349;28;21458;-65
2023/08/01 00:57:14;;;;;;;0.80;0.20;;;;;;;20.52;100.00;99975.69;5075321;28;20506;-65
2023/08/01 00:59:39;;;;;;;2.42;0.32;;;;;;;20.57;100.00;99973.19;5070859;28;20117;-65
2023/08/01 01:02:05;;;;;;;3.08;0.50;;;;;;;20.55;100.00;99967.31;5069270;28;20032;-65
2023/08/01 01:04:30;;;;;;;4.22;1.95;;;;;;;20.55;100.00;99964.66;5074697;28;20060;-65
2023/08/01 01:07:02;;;;;;;2.10;0.32;;;;;;;20.52;100.00;99960.63;5072378;28;20036;-65
2023/08/01 01:09:31;;;;;;;1.17;0.30;;;;;;;20.55;100.00;99962.00;5072828;28;20038;-65
2023/08/01 01:11:56;;;;;;;0.77;0.30;;;;;;;20.50;100.00;99953.91;5070636;28;20041;-65
2023/08/01 01:14:22;;;;;;;3.97;0.35;;;;;;;20.46;100.00;99958.03;5068688;28;20041;-64
2023/08/01 01:16:47;;;;;;;2.97;0.30;;;;;;;20.46;100.00;99963.34;5066691;28;20048;-64
2023/08/01 01:19:13;;;;;;;0.77;0.35;;;;;;;20.44;100.00;99947.69;5070077;28;20039;-65
2023/08/01 01:21:40;;;;;;;1.58;0.40;;;;;;;20.39;100.00;99944.06;5074527;28;20032;-66
2023/08/01 01:24:08;;;;;;;3.78;0.20;;;;;;;20.34;100.00;99949.19;5072121;28;20032;-65
2023/08/01 01:26:34;;;;;;;2.65;0.45;;;;;;;20.33;100.00;99950.22;5065614;28;20479;-65
2023/08/01 01:29:02;;;;;;;1.40;0.52;;;;;;;20.30;100.00;99953.31;5070892;28;20491;-65
2023/08/01 01:31:28;;;;;;;1.77;0.50;;;;;;;20.27;100.00;99940.53;5069640;28;20020;-65
2023/08/01 01:33:54;;;;;;;0.90;0.30;;;;;;;20.19;100.00;99950.38;5067801;28;20047;-64
2023/08/01 01:36:20;;;;;;;3.42;0.45;;;;;;;20.10;100.00;99949.03;5066900;28;20028;-65
2023/08/01 01:38:45;;;;;;;2.58;0.45;;;;;;;20.04;100.00;99949.91;5071448;28;20081;-65
2023/08/01 01:41:11;;;;;;;1.48;0.75;;;;;;;20.01;100.00;99950.34;5071007;28;20032;-65
2023/08/01 01:43:37;;;;;;;1.75;0.45;;;;;;;19.97;100.00;99951.81;5069874;28;20043;-65
2023/08/01 01:46:03;;;;;;;0.85;0.30;;;;;;;19.96;100.00;99952.03;5067443;28;20070;-65
2023/08/01 01:48:28;;;;;;;0.50;0.20;;;;;;;19.93;100.00;99958.56;5068040;28;20036;-65
2023/08/01 01:50:54;;;;;;;1.05;0.30;;;;;;;19.93;100.00;99953.28;5069896;28;20020;-65
2023/08/01 01:53:19;;;;;;;0.88;0.50;;;;;;;19.91;100.00;99947.38;5065825;28;20455;-65
2023/08/01 01:55:45;;;;;;;1.20;0.30;;;;;;;19.88;100.00;99948.63;5068466;28;20032;-65
2023/08/01 01:58:10;;;;;;;2.42;0.50;;;;;;;19.94;100.00;99946.94;5058801;28;20040;-65
2023/08/01 02:00:35;;;;;;;3.03;0.70;;;;;;;19.95;100.00;99940.63;5069084;28;20131;-65
2023/08/01 02:03:02;;;;;;;2.72;0.47;;;;;;;19.98;100.00;99934.09;5065016;28;20036;-65
2023/08/01 02:05:31;;;;;;;0.90;0.30;;;;;;;19.99;100.00;99928.59;5066391;28;20096;-65
2023/08/01 02:07:56;;;;;;;1.17;0.38;;;;;;;20.04;100.00;99926.13;5068279;28;20028;-65
2023/08/01 02:10:21;;;;;;;2.55;0.40;;;;;;;20.08;100.00;99919.38;5068660;28;20035;-65
2023/08/01 02:12:47;;;;;;;2.78;0.43;;;;;;;20.14;100.00;99910.56;5067017;28;20118;-65
2023/08/01 02:15:12;;;;;;;1.98;0.38;;;;;;;20.14;100.00;99905.25;5071220;28;20115;-65
2023/08/01 02:17:39;;;;;;;2.30;0.30;;;;;;;20.14;100.00;99904.47;5068206;28;20045;-65
2023/08/01 02:20:04;;;;;;;0.73;0.40;;;;;;;20.18;100.00;99906.44;5070779;28;20032;-64
2023/08/01 02:22:30;;;;;;;0.60;0.30;;;;;;;20.15;100.00;99906.06;5068152;28;20042;-65
2023/08/01 02:24:55;;;;;;;3.25;0.40;;;;;;;20.13;100.00;99903.66;5070917;28;20031;-65
2023/08/01 02:27:21;;;;;;;2.47;0.32;;;;;;;20.10;100.00;99908.56;5076129;28;20032;-65
2023/08/01 02:29:46;;;;;;;1.17;0.40;;;;;;;19.97;100.00;99904.22;5073451;28;20044;-65
2023/08/01 02:32:11;;;;;;;3.22;0.40;;;;;;;19.93;100.00;99903.03;5071564;28;20036;-64
2023/08/01 02:34:37;;;;;;;1.80;0.22;;;;;;;19.89;100.00;99904.50;5069868;28;20097;-65
2023/08/01 02:37:02;;;;;;;0.88;0.40;;;;;;;19.87;100.00;99898.63;5071747;28;20044;-64
2023/08/01 02:39:28;;;;;;;2.33;0.35;;;;;;;19.85;100.00;99900.66;5070011;28;20562;-65
2023/08/01 02:41:53;;;;;;;1.10;0.40;;;;;;;19.84;100.00;99899.09;5074340;28;20395;-65
2023/08/01 02:44:19;;;;;;;1.20;0.30;;;;;;;19.82;100.00;99895.84;5072472;28;20028;-65
2023/08/01 02:46:44;;;;;;;0.80;0.43;;;;;;;19.81;100.00;99888.94;5071587;28;20468;-64
2023/08/01 02:49:09;;;;;;;1.10;0.40;;;;;;;19.81;100.00;99887.13;5071955;28;20051;-64
2023/08/01 02:51:35;;;;;;;3.65;0.50;;;;;;;19.84;100.00;99891.16;5071798;28;20028;-65
2023/08/01 02:54:00;;;;;;;0.60;0.28;;;;;;;19.82;100.00;99885.28;5075415;28;20020;-64
2023/08/01 02:56:27;;;;;;;0.88;0.30;;;;;;;19.81;100.00;99871.25;5076892;28;20485;-65
2023/08/01 02:58:55;;;;;;;1.25;0.30;;;;;;;19.84;100.00;99876.09;5071698;28;20063;-66
2023/08/01 03:01:20;;;;;;;0.82;0.40;;;;;;;19.86;100.00;99873.22;5071968;28;20464;-64
2023/08/01 03:03:45;;;;;;;0.60;0.30;;;;;;;19.95;100.00;99868.44;5073001;28;20146;-65
2023/08/01 03:06:12;;;;;;;1.60;0.38;;;;;;;20.00;100.00;99869.41;5072293;28;20039;-65
2023/08/01 03:08:38;;;;;;;3.25;0.30;;;;;;;20.01;100.00;99870.22;5073967;28;20036;-65
2023/08/01 03:11:03;;;;;;;1.00;0.38;;;;;;;20.01;100.00;99867.56;5077213;28;20475;-65
2023/08/01 03:13:29;;;;;;;2.97;0.30;;;;;;;19.98;100.00;99871.47;5072039;28;21350;-65
2023/08/01 03:15:54;;;;;;;1.13;0.30;;;;;;;19.95;100.00;99868.44;5070310;28;20044;-66
2023/08/01 03:18:19;;;;;;;0.65;0.35;;;;;;;19.92;100.00;99856.47;5079039;28;20040;-65
2023/08/01 03:20:45;;;;;;;1.42;0.30;;;;;;;19.86;100.00;99855.50;5073826;28;20028;-64
2023/08/01 03:23:10;;;;;;;0.80;0.30;;;;;;;19.81;100.00;99862.50;5073021;28;20525;-65
2023/08/01 03:25:36;;;;;;;1.02;0.32;;;;;;;19.72;100.00;99853.25;5071958;28;20426;-65
2023/08/01 03:28:01;;;;;;;3.33;0.40;;;;;;;19.62;100.00;99847.66;5069661;28;20123;-64
2023/08/01 03:30:27;;;;;;;1.67;0.40;;;;;;;19.59;100.00;99846.25;5069648;28;20098;-64
2023/08/01 03:32:52;;;;;;;2.47;0.50;;;;;;;19.56;100.00;99844.03;5072649;28;20054;-65
2023/08/01 03:35:18;;;;;;;2.03;0.45;;;;;;;19.54;100.00;99846.91;5069032;28;20040;-65
2023/08/01 03:37:43;;;;;;;2.15;0.40;;;;;;;19.57;100.00;99850.13;5076015;28;20036;-64
2023/08/01 03:40:09;;;;;;;3.65;0.68;;;;;;;19.56;100.00;99851.97;5071706;28;20040;-65
2023/08/01 03:42:35;;;;;;;1.55;0.47;;;;;;;19.49;100.00;99849.34;5072320;28;20470;-65
2023/08/01 03:45:00;;;;;;;7.70;0.80;;;;;;;19.47;100.00;99861.97;5070436;28;20040;-65
2023/08/01 03:47:26;;;;;;;2.05;0.43;;;;;;;19.47;100.00;99858.53;5072283;28;20062;-64
2023/08/01 03:49:51;;;;;;;3.42;0.50;;;;;;;19.43;100.00;99852.88;5070073;28;20033;-65
2023/08/01 03:52:17;;;;;;;4.40;0.40;;;;;;;19.45;100.00;99847.38;5070837;28;20024;-64
2023/08/01 03:54:42;;;;;;;2.67;0.30;;;;;;;19.51;100.00;99857.91;5072312;28;20029;-65
2023/08/01 03:57:07;;;;;;;1.00;0.50;;;;;;;19.59;100.00;99854.19;5072796;28;20036;-65
2023/08/01 03:59:33;;;;;;;1.00;0.40;;;;;;;19.62;100.00;99839.72;5071122;28;20515;-66
2023/08/01 04:01:58;;;;;;;2.15;0.40;;;;;;;19.61;100.00;99843.41;5073323;28;20383;-66
2023/08/01 04:04:24;;;;;;;4.47;0.40;;;;;;;19.63;100.00;99839.50;5070160;28;20468;-64
2023/08/01 04:06:49;;;;;;;0.95;0.50;;;;;;;19.69;100.00;99840.47;5068762;28;20338;-65
2023/08/01 04:09:15;;;;;;;1.95;0.40;;;;;;;19.70;100.00;99840.25;5072895;28;20044;-65
2023/08/01 04:11:40;;;;;;;1.13;0.40;;;;;;;19.68;100.00;99841.50;5070948;28;20036;-65
2023/08/01 04:14:05;;;;;;;0.90;0.57;;;;;;;19.73;100.00;99841.66;5070678;28;20043;-65
2023/08/01 04:16:31;;;;;;;1.02;0.38;;;;;;;19.81;100.00;99846.66;5072538;28;20056;-65
2023/08/01 04:18:56;;;;;;;0.70;0.30;;;;;;;19.82;100.00;99849.09;5072123;28;20452;-65
2023/08/01 04:21:22;;;;;;;0.70;0.40;;;;;;;19.82;100.00;99848.28;5070419;28;20400;-65
2023/08/01 04:23:47;;;;;;;2.58;0.40;;;;;;;19.79;100.00;99849.53;5072735;28;20472;-65
2023/08/01 04:26:13;;;;;;;2.38;0.30;;;;;;;19.77;100.00;99842.84;5071836;28;20046;-65
2023/08/01 04:28:38;;;;;;;1.13;0.50;;;;;;;19.69;100.00;99837.84;5073872;28;20040;-65
2023/08/01 04:31:04;;;;;;;4.28;0.30;;;;;;;19.66;100.00;99832.97;5068453;28;20041;-65
2023/08/01 04:33:29;;;;;;;2.95;0.50;;;;;;;19.59;100.00;99829.59;5075838;28;20024;-65
2023/08/01 04:35:55;;;;;;;0.93;0.32;;;;;;;19.54;100.00;99825.78;5071336;28;20047;-65
2023/08/01 04:38:20;;;;;;;1.88;0.40;;;;;;;19.56;100.00;99820.25;5070586;28;20664;-65
2023/08/01 04:40:45;;;;;;;1.02;0.30;;;;;;;19.61;100.00;99824.91;5071274;28;20147;-66
2023/08/01 04:43:12;;;;;;;2.60;0.63;;;;;;;19.68;100.00;99825.66;5074229;28;20616;-65
2023/08/01 04:45:37;;;;;;;0.60;0.30;;;;;;;19.72;100.00;99830.28;5071012;28;20083;-65
2023/08/01 04:48:03;;;;;;;0.70;0.30;;;;;;;19.73;100.00;99831.09;5070080;28;20480;-65
2023/08/01 04:50:28;;;;;;;4.80;0.30;;;;;;;19.75;100.00;99826.38;5069401;28;20028;-65
2023/08/01 04:52:54;;;;;;;2.20;0.40;;;;;;;19.77;100.00;99830.44;5066094;28;20499;-65
2023/08/01 04:55:19;;;;;;;1.42;0.22;;;;;;;19.77;100.00;99830.44;5068844;28;20039;-65
2023/08/01 04:57:45;;;;;;;2.22;0.43;;;;;;;19.81;100.00;99828.16;5070050;28;20479;-65
2023/08/01 05:00:11;;;;;;;3.22;0.52;;;;;;;19.80;100.00;99818.59;5069266;28;20071;-66
2023/08/01 05:02:36;;;;;;;1.98;0.40;;;;;;;19.76;100.00;99817.44;5070616;28;20500;-65
2023/08/01 05:05:02;;;;;;;7.13;0.40;;;;;;;19.71;100.00;99814.63;5066711;28;20078;-65
2023/08/01 05:07:28;;;;;;;1.73;0.52;;;;;;;19.75;100.00;99813.97;5073578;28;20040;-66
2023/08/01 05:09:53;;;;;;;1.58;0.43;;;;;;;19.88;100.00;99818.28;5071184;28;20039;-65
2023/08/01 05:12:18;;;;;;;1.38;0.60;;;;;;;20.06;100.00;99809.53;5067695;28;20025;-66
2023/08/01 05:14:44;;;;;;;2.55;0.57;;;;;;;20.15;100.00;99809.03;5067131;28;20078;-65
2023/08/01 05:17:09;;;;;;;1.15;0.40;;;;;;;20.20;100.00;99816.28;5068917;28;20484;-65
2023/08/01 05:19:35;;;;;;;1.38;0.50;;;;;;;20.22;100.00;99811.59;5068645;28;20510;-66
2023/08/01 05:22:01;;;;;;;1.23;0.30;;;;;;;20.25;100.00;99810.34;5060583;28;20036;-65
2023/08/01 05:24:26;;;;;;;1.35;0.40;;;;;;;20.29;100.00;99807.03;5067295;28;20069;-65
2023/08/01 05:26:52;;;;;;;3.53;0.40;;;;;;;20.29;100.00;99812.31;5072752;28;20423;-66
2023/08/01 05:29:17;;;;;;;1.55;0.50;;;;;;;20.28;100.00;99804.59;5068161;28;20020;-65
2023/08/01 05:31:42;;;;;;;0.70;0.30;;;;;;;20.24;100.00;99811.38;5064637;28;20053;-65
2023/08/01 05:34:08;;;;;;;1.13;0.30;;;;;;;20.16;100.00;99813.28;5069833;28;20086;-66
2023/08/01 05:36:33;;;;;;;2.38;0.60;;;;;;;20.16;100.00;99808.00;5067410;28;20019;-65
2023/08/01 05:38:58;;;;;;;1.20;0.60;;;;;;;20.08;100.00;99805.66;5066479;28;20097;-65
2023/08/01 05:41:24;;;;;;;2.40;0.50;;;;;;;20.08;100.00;99812.78;5066828;28;20036;-65
2023/08/01 05:43:49;;;;;;;6.43;0.50;;;;;;;20.10;100.00;99802.78;5071935;28;20033;-71
2023/08/01 05:46:16;;;;;;;2.15;0.40;;;;;;;20.11;100.00;99797.28;5071215;28;20051;-71
2023/08/01 05:48:41;;;;;;;1.95;0.40;;;;;;;20.16;100.00;99794.78;5068902;28;20071;-68
2023/08/01 05:51:07;;;;;;;2.03;0.45;;;;;;;20.24;100.00;99803.44;5075290;28;20460;-71
2023/08/01 05:53:32;;;;;;;2.60;0.40;;;;;;;20.31;100.00;99799.69;5069377;28;20051;-68
2023/08/01 05:55:58;;;;;;;0.90;0.40;;;;;;;20.39;100.00;99791.44;5062425;28;20119;-68
2023/08/01 05:58:23;;;;;;;2.58;0.40;;;;;;;20.47;100.00;99800.91;5059513;28;20029;-69
2023/08/01 06:00:49;;;;;;;3.25;0.40;;;;;;;20.52;100.00;99796.53;5066116;28;20443;-72
2023/08/01 06:03:15;;;;;;;2.53;0.35;;;;;;;20.60;100.00;99790.13;5064937;28;20134;-71
2023/08/01 06:05:40;;;;;;;0.75;0.40;;;;;;;20.69;100.00;99795.91;5065373;28;20165;-68
2023/08/01 06:08:08;;;;;;;0.95;0.30;;;;;;;20.73;100.00;99795.25;5067247;28;20486;-67
2023/08/01 06:10:33;;;;;;;2.75;0.38;;;;;;;20.79;100.00;99788.22;5067626;28;20032;-67
2023/08/01 06:12:59;;;;;;;1.63;0.30;;;;;;;20.80;100.00;99781.88;5065681;28;20464;-70
2023/08/01 06:15:24;;;;;;;2.53;0.45;;;;;;;20.83;100.00;99776.13;5067176;28;20029;-70
2023/08/01 06:17:49;;;;;;;0.95;0.30;;;;;;;20.88;100.00;99779.69;5064948;28;20082;-70
2023/08/01 06:20:15;;;;;;;1.17;0.35;;;;;;;20.95;100.00;99784.09;5068267;28;20045;-70
2023/08/01 06:22:41;;;;;;;1.00;0.50;;;;;;;20.98;100.00;99786.28;5066548;28;20040;-69
2023/08/01 06:25:07;;;;;;;4.03;0.40;;;;;;;21.03;100.00;99784.56;5066510;28;20480;-69
2023/08/01 06:27:33;;;;;;;0.80;0.30;;;;;;;21.06;100.00;99791.25;5065370;28;20036;-66
2023/08/01 06:29:58;;;;;;;1.08;0.30;;;;;;;21.09;100.00;99781.00;5061900;28;20031;-63
2023/08/01 06:32:23;;;;;;;1.95;0.40;;;;;;;21.12;100.00;99782.38;5061910;28;20123;-64
2023/08/01 06:34:49;;;;;;;2.47;0.35;;;;;;;21.15;100.00;99777.44;5063567;28;20029;-63
2023/08/01 06:37:14;;;;;;;0.93;0.30;;;;;;;21.19;100.00;99772.50;5068389;28;20119;-64
2023/08/01 06:39:40;;;;;;;3.63;0.50;;;;;;;21.21;100.00;99775.75;5069246;28;20032;-65
2023/08/01 06:42:05;;;;;;;1.30;0.93;;;;;;;21.19;100.00;99769.84;5074968;28;20040;-64
2023/08/01 06:44:31;;;;;;;3.92;0.40;;;;;;;21.24;100.00;99777.13;5073749;28;20089;-65
2023/08/01 06:46:56;;;;;;;2.25;0.40;;;;;;;21.32;100.00;99782.88;5063697;28;20039;-68
2023/08/01 06:49:22;;;;;;;1.67;0.40;;;;;;;21.42;100.00;99780.44;5064566;28;20052;-67
2023/08/01 06:51:47;;;;;;;2.92;0.30;;;;;;;21.47;99.38;99783.22;5063047;28;20368;-65
2023/08/01 06:54:12;;;;;;;3.65;0.30;;;;;;;21.55;99.21;99775.94;5072506;28;20044;-62
2023/08/01 06:56:38;;;;;;;0.75;0.30;;;;;;;21.56;98.77;99774.91;5067908;28;20071;-68
2023/08/01 06:59:03;;;;;;;0.75;0.40;;;;;;;21.59;98.99;99785.03;5071643;28;20551;-68
2023/08/01 07:01:29;;;;;;;1.00;0.30;;;;;;;21.57;98.45;99773.88;5068757;28;20029;-69
2023/08/01 07:03:55;;;;;;;1.00;0.32;;;;;;;21.55;99.08;99778.59;5068933;28;20036;-67
2023/08/01 07:06:20;;;;;;;1.52;0.30;;;;;;;21.51;99.55;99768.47;5067916;28;20419;-67
2023/08/01 07:08:46;;;;;;;1.10;0.35;;;;;;;21.51;99.62;99757.84;5067585;28;20028;-66
2023/08/01 07:11:11;;;;;;;3.60;0.40;;;;;;;21.55;99.28;99746.78;5062651;28;20081;-67
2023/08/01 07:13:37;;;;;;;1.05;0.32;;;;;;;21.63;99.16;99749.09;5067449;28;20061;-67
2023/08/01 07:16:02;;;;;;;0.70;0.25;;;;;;;21.75;98.99;99744.53;5065264;28;20053;-66
2023/08/01 07:18:27;;;;;;;1.40;0.30;;;;;;;21.90;98.33;99742.19;5066713;28;20473;-62
2023/08/01 07:21:03;;;;;;;1.92;0.43;;;;;;;22.06;96.85;99741.47;5065728;28;20040;-62
2023/08/01 07:23:29;;;;;;;0.68;0.30;;;;;;;22.17;97.02;99722.06;5061450;28;20045;-62
2023/08/01 07:25:54;;;;;;;2.55;0.50;;;;;;;22.34;96.75;99722.06;5068112;28;20036;-62
2023/08/01 07:28:20;;;;;;;1.83;0.40;;;;;;;22.46;95.99;99712.19;5068809;28;20529;-62
2023/08/01 07:30:45;;;;;;;2.13;0.40;;;;;;;22.61;95.38;99716.97;5068355;28;20040;-63
2023/08/01 07:33:10;;;;;;;1.23;0.32;;;;;;;22.65;93.81;99726.06;5077646;28;20115;-62
2023/08/01 07:35:36;;;;;;;7.10;0.40;;;;;;;22.65;93.50;99726.06;5074084;28;20104;-64
2023/08/01 07:38:01;;;;;;;2.90;0.50;;;;;;;22.65;93.74;99720.75;5073647;28;20032;-66
2023/08/01 07:40:27;;;;;;;0.98;0.40;;;;;;;22.64;94.27;99726.28;5073115;28;20134;-69
2023/08/01 07:42:52;;;;;;;2.20;0.30;;;;;;;22.60;94.66;99720.66;5073708;28;20028;-69
2023/08/01 07:45:19;;;;;;;1.13;0.30;;;;;;;22.66;94.80;99721.56;5072592;28;20033;-70
2023/08/01 07:47:44;;;;;;;2.65;0.40;;;;;;;22.71;95.60;99719.75;5075460;28;20667;-69
2023/08/01 07:50:10;;;;;;;1.75;0.40;;;;;;;22.71;95.79;99719.75;5074889;28;20040;-69
2023/08/01 07:52:36;;;;;;;3.85;0.75;;;;;;;22.76;94.80;99714.53;5072811;28;20043;-69
2023/08/01 07:55:01;;;;;;;1.23;0.63;;;;;;;22.78;95.42;99709.81;5069792;28;20033;-70
2023/08/01 07:57:27;;;;;;;0.88;0.40;;;;;;;22.73;95.09;99717.66;5073732;28;20066;-69
2023/08/01 07:59:52;;;;;;;2.42;0.40;;;;;;;22.71;95.61;99718.94;5069522;28;20423;-69
2023/08/01 08:02:18;;;;;;;1.33;0.40;;;;;;;22.68;95.38;99709.66;5066135;28;20028;-69
2023/08/01 08:04:47;;;;;;;3.67;0.40;;;;;;;22.64;95.53;99719.13;5071753;28;20123;-69
2023/08/01 08:07:12;;;;;;;1.92;0.32;;;;;;;22.63;95.64;99722.84;5068713;28;20040;-70
2023/08/01 08:09:38;;;;;;;2.08;0.40;;;;;;;22.60;95.43;99715.34;5069879;28;20028;-73
2023/08/01 08:12:03;;;;;;;1.48;0.50;;;;;;;22.58;95.66;99717.44;5069299;28;20037;-73
2023/08/01 08:14:30;;;;;;;1.45;0.38;;;;;;;22.60;95.89;99717.19;5075049;28;20039;-73
2023/08/01 08:16:55;;;;;;;2.25;0.40;;;;;;;22.63;94.93;99714.88;5072252;28;20396;-72
2023/08/01 08:19:20;;;;;;;0.90;0.43;;;;;;;22.67;94.49;99720.50;5075531;28;20036;-71
2023/08/01 08:21:46;;;;;;;2.38;0.35;;;;;;;22.68;94.13;99722.13;5063426;28;20100;-71
2023/08/01 08:24:11;;;;;;;0.82;0.40;;;;;;;22.67;94.88;99716.00;5073741;28;20021;-71
2023/08/01 08:26:39;;;;;;;0.70;0.30;;;;;;;22.68;94.16;99714.16;5071872;28;20415;-71
2023/08/01 08:29:05;;;;;;;2.25;0.40;;;;;;;22.61;94.85;99703.69;5072122;28;20024;-71
2023/08/01 08:31:31;;;;;;;3.97;0.30;;;;;;;22.56;96.78;99716.88;5076466;28;20043;-72
2023/08/01 08:33:56;;;;;;;1.40;0.30;;;;;;;22.49;100.00;99732.16;5071239;28;20043;-71
2023/08/01 08:36:22;;;;;;;3.05;0.50;;;;;;;22.26;100.00;99746.34;5075143;28;20035;-71
2023/08/01 08:38:47;;;;;;;1.13;0.45;;;;;;;22.05;100.00;99745.19;5078317;28;20502;-71
2023/08/01 08:41:37;;;;;;;1.85;0.60;;;;;;;21.85;100.00;99753.50;5066846;28;20115;-69
2023/08/01 08:44:08;;;;;;;3.47;0.90;;;;;;;21.72;100.00;99758.28;5068912;28;20032;-68
2023/08/01 08:46:40;;;;;;;1.02;0.45;;;;;;;21.61;100.00;99743.22;5076013;28;20111;-68
2023/08/01 08:49:06;;;;;;;2.92;0.45;;;;;;;21.58;100.00;99755.09;5069035;28;20101;-72
2023/08/01 08:51:33;;;;;;;1.50;0.47;;;;;;;21.53;100.00;99753.13;5072582;28;20094;-68
2023/08/01 08:54:00;;;;;;;4.63;0.60;;;;;;;21.47;100.00;99755.91;5066124;28;20428;-67
2023/08/01 08:56:28;;;;;;;3.60;0.55;;;;;;;21.46;100.00;99751.63;5071939;28;20032;-68
2023/08/01 08:58:53;;;;;;;4.72;0.93;;;;;;;21.39;100.00;99743.81;5068888;28;20108;-69
2023/08/01 09:01:19;;;;;;;3.08;0.50;;;;;;;21.35;100.00;99745.31;5069817;28;20123;-75
2023/08/01 09:03:44;;;;;;;2.25;0.50;;;;;;;21.37;100.00;99742.44;5071099;28;20107;-71
2023/08/01 09:06:24;;;;;;;2.08;0.60;;;;;;;21.36;100.00;99744.28;5081714;28;20150;-74
2023/08/01 09:08:55;;;;;;;3.33;0.75;;;;;;;21.29;100.00;99754.19;5070987;28;20548;-70
2023/08/01 09:11:20;;;;;;;3.90;0.45;;;;;;;21.24;100.00;99762.03;5065619;28;20047;-71
2023/08/01 09:13:47;;;;;;;3.08;0.63;;;;;;;21.16;100.00;99751.75;5068530;28;20780;-72
2023/08/01 09:16:14;;;;;;;2.92;0.70;;;;;;;21.12;100.00;99742.66;5070250;28;20183;-73
2023/08/01 09:18:50;;;;;;;1.40;0.52;;;;;;;21.10;100.00;99720.91;5069933;28;20086;-72
2023/08/01 09:21:19;;;;;;;2.30;0.47;;;;;;;21.21;100.00;99720.13;5065756;28;20514;-72
2023/08/01 09:23:46;;;;;;;0.98;0.50;;;;;;;21.34;100.00;99714.56;5071829;28;20450;-72
2023/08/01 09:26:18;;;;;;;2.88;0.63;;;;;;;21.49;100.00;99706.13;5073525;28;20040;-72
2023/08/01 09:28:54;;;;;;;0.88;0.38;;;;;;;21.61;100.00;99701.59;5071857;28;20029;-71
2023/08/01 09:31:27;;;;;;;2.00;0.30;;;;;;;21.66;100.00;99696.41;5072181;28;20085;-72
2023/08/01 09:33:53;;;;;;;1.67;0.55;;;;;;;21.67;100.00;99687.41;5067428;28;20035;-71
2023/08/01 09:36:22;;;;;;;1.00;0.35;;;;;;;21.74;100.00;99696.00;5067241;28;20491;-71
2023/08/01 09:38:48;;;;;;;1.85;0.40;;;;;;;22.08;100.00;99696.97;5065946;28;20502;-71
2023/08/01 09:41:20;;;;;;;3.88;0.47;;;;;;;22.36;100.00;99690.00;5065173;28;20028;-68
2023/08/01 09:43:47;;;;;;;2.60;0.40;;;;;;;22.67;100.00;99689.44;5067230;28;20392;-70
2023/08/01 09:46:13;;;;;;;1.02;0.35;;;;;;;22.98;100.00;99692.56;5066587;28;20074;-70
2023/08/01 09:48:39;;;;;;;1.05;0.40;;;;;;;23.10;98.00;99685.31;5069391;28;20028;-70
2023/08/01 09:51:10;;;;;;;1.00;0.60;;;;;;;23.30;96.38;99679.44;5067884;28;20032;-70
2023/08/01 09:53:48;;;;;;;0.77;0.30;;;;;;;23.42;94.96;99669.50;5062130;28;20488;-70
2023/08/01 09:56:36;;;;;;;1.00;0.20;;;;;;;23.40;93.77;99672.41;5076105;28;20093;-69
2023/08/01 09:59:02;;;;;;;7.93;0.50;;;;;;;23.30;92.62;99658.19;5059940;28;20033;-68
2023/08/01 10:01:30;;;;;;;2.05;0.30;;;;;;;23.36;93.24;99652.69;5068127;28;20511;-69
2023/08/01 10:03:56;;;;;;;1.63;0.35;;;;;;;23.44;91.36;99659.44;5071635;28;20028;-69
2023/08/01 10:06:23;;;;;;;2.65;0.30;;;;;;;23.56;90.95;99654.00;5091090;28;20028;-70
2023/08/01 10:08:51;;;;;;;2.25;0.30;;;;;;;23.43;91.75;99652.50;5090954;28;20036;-70
2023/08/01 10:11:18;;;;;;;0.57;0.30;;;;;;;23.41;90.90;99646.63;5090857;28;20024;-69
2023/08/01 10:13:45;;;;;;;1.48;0.30;;;;;;;23.38;91.97;99650.59;5090406;28;20034;-70
2023/08/01 10:16:12;;;;;;;1.75;0.40;;;;;;;23.30;92.62;99637.72;5089368;28;20410;-69
2023/08/01 10:18:39;;;;;;;2.80;0.40;;;;;;;23.35;91.29;99639.66;5090880;28;20040;-70
2023/08/01 10:21:06;;;;;;;2.03;0.47;;;;;;;23.44;91.28;99628.31;5084764;28;20032;-70
2023/08/01 10:23:35;;;;;;;1.20;0.50;;;;;;;23.57;91.02;99616.53;5063744;28;20063;-70
2023/08/01 10:26:05;;;;;;;3.15;0.43;;;;;;;23.65;90.72;99616.06;5075367;28;20045;-70
2023/08/01 10:28:35;;;;;;;0.80;0.30;;;;;;;23.67;89.64;99608.66;5065118;28;20041;-69
2023/08/01 10:31:14;;;;;;;0.95;0.45;;;;;;;23.75;86.69;99608.19;5078585;28;20039;-69
2023/08/01 10:33:45;;;;;;;1.00;0.30;;;;;;;23.83;87.93;99602.44;5076450;28;20095;-69
2023/08/01 10:36:17;;;;;;;1.40;0.40;;;;;;;23.88;88.76;99606.19;5085865;28;20032;-69
2023/08/01 10:38:52;;;;;;;0.75;0.38;;;;;;;23.88;87.64;99607.00;5079699;28;20487;-70
2023/08/01 10:41:34;;;;;;;2.30;0.30;;;;;;;23.81;86.46;99601.88;5077207;28;20024;-69
2023/08/01 10:44:15;;;;;;;1.10;0.30;;;;;;;23.75;86.52;99604.75;5053886;28;20029;-70
2023/08/01 10:46:58;;;;;;;2.60;0.40;;;;;;;23.72;86.75;99603.38;5069150;28;20044;-71
2023/08/01 10:49:42;;;;;;;1.02;0.20;;;;;;;23.73;86.64;99606.84;5072085;28;20113;-71
2023/08/01 10:52:24;;;;;;;0.85;0.20;;;;;;;23.65;87.79;99592.13;5073316;28;20040;-71
2023/08/01 10:55:00;;;;;;;1.70;0.30;;;;;;;23.68;87.66;99594.28;5073310;28;20040;-73
2023/08/01 10:57:36;;;;;;;4.35;0.30;;;;;;;23.76;87.15;99587.72;5074166;28;20044;-70
2023/08/01 11:02:56;;;;;;;1.02;0.43;;;;;;;24.01;88.67;99574.66;5076390;28;20112;-71
2023/08/01 11:05:23;;;;;;;1.40;0.40;;;;;;;24.13;88.71;99567.28;5079383;28;20036;-69
2023/08/01 11:07:57;;;;;;;0.70;0.30;;;;;;;24.23;88.68;99565.75;5081655;28;20035;-71
2023/08/01 11:10:26;;;;;;;3.42;0.30;;;;;;;24.21;87.75;99552.72;5085691;28;20032;-70
2023/08/01 11:12:53;;;;;;;0.98;0.30;;;;;;;24.33;86.80;99539.25;5075020;28;20044;-70
2023/08/01 11:15:19;;;;;;;1.02;0.20;;;;;;;24.45;85.30;99537.19;5062655;28;20037;-71
2023/08/01 11:17:54;;;;;;;0.80;0.30;;;;;;;24.44;84.43;99546.25;5063592;28;20052;-70
2023/08/01 11:20:22;;;;;;;1.63;0.40;;;;;;;24.54;83.64;99543.66;5072410;28;20448;-69
2023/08/01 11:23:01;;;;;;;0.98;0.30;;;;;;;24.72;83.38;99547.72;5071406;28;20038;-69
2023/08/01 11:25:43;;;;;;;3.70;0.40;;;;;;;24.64;82.16;99540.22;5072265;28;20040;-69
2023/08/01 11:28:14;;;;;;;1.90;0.35;;;;;;;24.56;83.38;99541.53;5075303;28;20021;-70